Decoded Metar for KBTM (BUTTE in MT, USA) (IATA:BTM) | Meteo·Mobile Aviation Weather
aviador You're here:

KBTM Decoded Metar

BUTTE in MT, USA
Report Time2018-12-11 02:53:00
UTC Time2018-12-11 03:17:22
Flight Rules vfr VFR
Wind030° at 04 kt
W.Decomp.*RWY 33: 2.9 kt HW 2.8 kt RCW
RWY 30: 1.1 kt HW 3.8 kt RCW
W.Rank030° ranks 29
Current wind is below 030° avg. (5.5)
Visibility9999 m
Phenomena:N/A
Clouds:Broken 065 Hf
Overcast 110 Hf
Expected CloudBase > 1,600 ft AGL from Temp-Dew spread
Ceiling6,500 ft
Temp-3°C (ISA -7)
Dew Point-7°C (74% RH)
AAT-7.2°C
QNH1019 hPa
Density Alt4,551 ft
Elevation5,538 ft
Report Wrong Elevation
Raw Report
KBTM 110253Z AUTO 03004KT 10SM BKN065 OVC110 M03/M07 A3010 RMK AO2
SLP256 T10281067 51009=

Extra information for KBTM:More info

Metar Taf Metar & Taf Last 4 Metars F.Rules Stats Wind Profile Meteogram Temp Stats Airport Information Weather charts Add Link Nearby VenuesMetar ALERT Operation Metar Decoded Social comments

AIRNAV info for KBTM